Terminal Aerodrome Forecast
Issued by NWS Jackson, KY

Home | Current Version | Previous Version | Text Only | Print | Product List | Glossary On
Versions: 1 2 3 4 5 6 7 8 9 10 11 12
000
FTUS43 KJKL 231122
TAFLOZ
TAF
KLOZ 231122Z 2312/2412 VRB03KT P6SM SCT015 BKN050
     FM231500 VRB03KT P6SM SCT040
     FM240000 VRB03KT P6SM SKC
     FM240900 00000KT 4SM BR SKC=

USA.gov is the U.S. government's official web portal to all federal, state and local government web resources and services.